createdAt,value
2022-09-23T00:03:48.977Z,71.15
2022-09-23T00:08:52.814Z,71.32
2022-09-23T00:14:00.086Z,71.60
2022-09-23T00:19:04.522Z,71.73
2022-09-23T00:24:08.316Z,71.63
2022-09-23T00:29:11.574Z,71.88
2022-09-23T00:34:14.659Z,72.04
2022-09-23T00:39:17.717Z,71.28
2022-09-23T00:44:53.855Z,71.06
2022-09-23T00:50:08.618Z,71.53
2022-09-23T00:55:26.705Z,71.41
2022-09-23T01:00:29.882Z,71.80
2022-09-23T01:05:34.648Z,71.73
2022-09-23T01:10:56.098Z,71.54
2022-09-23T01:16:07.850Z,71.05
2022-09-23T01:21:39.417Z,71.05
2022-09-23T01:27:16.512Z,71.17
2022-09-23T01:33:05.496Z,71.07
2022-09-23T01:38:21.039Z,71.47
2022-09-23T01:43:55.080Z,72.01
2022-09-23T01:49:28.297Z,71.75
2022-09-23T01:54:46.503Z,71.85
2022-09-23T01:59:57.185Z,71.82
2022-09-23T02:05:18.973Z,72.33
2022-09-23T02:10:44.414Z,72.49
2022-09-23T02:15:54.122Z,72.93
2022-09-23T02:21:04.873Z,73.15
2022-09-23T02:26:30.673Z,73.54
2022-09-23T02:31:54.041Z,73.12
2022-09-23T02:37:09.233Z,72.21
2022-09-23T02:42:23.684Z,72.09
2022-09-23T02:47:32.741Z,71.90
2022-09-23T02:52:38.882Z,71.30
2022-09-23T02:57:42.130Z,70.73
2022-09-23T03:03:01.154Z,70.57
2022-09-23T03:08:52.180Z,70.62
2022-09-23T03:14:36.013Z,70.46
2022-09-23T03:19:51.177Z,70.73
2022-09-23T03:24:59.590Z,70.60
2022-09-23T03:30:04.641Z,70.54
2022-09-23T03:35:08.650Z,70.24
2022-09-23T03:40:35.603Z,70.62
2022-09-23T03:45:39.200Z,70.50
2022-09-23T03:50:42.344Z,70.80
2022-09-23T03:55:46.810Z,70.87
2022-09-23T04:00:49.943Z,71.09
2022-09-23T04:05:53.053Z,70.85
2022-09-23T04:11:01.732Z,71.20
2022-09-23T04:16:05.134Z,71.16
2022-09-23T04:21:08.263Z,71.18
2022-09-23T04:26:12.539Z,71.12
2022-09-23T04:31:15.606Z,70.95
2022-09-23T04:36:18.818Z,71.23
2022-09-23T04:41:21.989Z,71.29
2022-09-23T04:46:25.114Z,71.28
2022-09-23T04:51:28.941Z,71.53
2022-09-23T04:56:34.583Z,72.12
2022-09-23T05:01:38.689Z,72.25
2022-09-23T05:06:45.338Z,72.92
2022-09-23T05:11:48.683Z,73.24
2022-09-23T05:16:51.601Z,73.60
2022-09-23T05:21:54.460Z,73.56
2022-09-23T05:26:57.297Z,73.79
2022-09-23T05:32:01.678Z,73.75
2022-09-23T05:37:05.433Z,73.43
2022-09-23T05:42:08.303Z,73.70
2022-09-23T05:47:11.193Z,73.36
2022-09-23T05:52:14.062Z,73.30
2022-09-23T05:57:16.929Z,73.09
2022-09-23T06:02:19.841Z,73.09
2022-09-23T06:07:22.817Z,72.67
2022-09-23T06:12:25.687Z,72.64
2022-09-23T06:17:28.571Z,73.27
2022-09-23T06:22:31.728Z,73.76
2022-09-23T06:27:35.053Z,74.06
2022-09-23T06:32:38.005Z,74.46
2022-09-23T06:37:40.907Z,75.04
2022-09-23T06:42:47.108Z,75.06
2022-09-23T06:47:58.299Z,75.38
2022-09-23T06:53:01.237Z,75.16
2022-09-23T06:58:04.138Z,74.77
2022-09-23T07:03:08.935Z,74.84
2022-09-23T07:08:11.811Z,74.88
2022-09-23T07:13:16.401Z,74.44
2022-09-23T07:18:22.019Z,74.44
2022-09-23T07:23:25.928Z,74.30
2022-09-23T07:28:29.317Z,74.59
2022-09-23T07:33:33.415Z,74.79
2022-09-23T07:38:41.628Z,73.59
2022-09-23T07:43:48.136Z,74.00
2022-09-23T07:48:50.999Z,73.79
2022-09-23T07:53:56.882Z,73.39
2022-09-23T07:59:01.747Z,72.53
2022-09-23T08:04:11.091Z,71.98
2022-09-23T08:09:14.943Z,72.79
2022-09-23T08:14:18.552Z,72.24
2022-09-23T08:19:21.381Z,71.84
2022-09-23T08:24:26.674Z,70.71
2022-09-23T08:29:29.713Z,71.51
2022-09-23T08:34:32.562Z,71.15
2022-09-23T08:39:35.461Z,69.73
2022-09-23T08:44:56.876Z,68.89
2022-09-23T08:50:27.002Z,68.55
2022-09-23T08:55:42.119Z,66.89
2022-09-23T09:01:08.116Z,65.43
2022-09-23T09:06:19.043Z,66.44
2022-09-23T09:11:24.258Z,63.45
2022-09-23T09:16:59.846Z,64.94
2022-09-23T09:22:09.527Z,64.57
2022-09-23T09:27:13.945Z,63.01
2022-09-23T09:32:46.476Z,61.21
2022-09-23T09:37:49.484Z,61.75
2022-09-23T09:42:52.497Z,60.64
2022-09-23T09:48:13.631Z,59.76
2022-09-23T09:53:30.604Z,60.90
2022-09-23T09:59:00.434Z,60.94
2022-09-23T10:04:33.993Z,60.22
2022-09-23T10:09:39.840Z,59.51
2022-09-23T10:14:43.789Z,57.68
2022-09-23T10:19:49.760Z,59.09
2022-09-23T10:24:55.203Z,59.47
2022-09-23T10:30:21.848Z,59.31
2022-09-23T10:35:26.685Z,58.48
2022-09-23T10:40:48.286Z,56.95
2022-09-23T10:46:12.705Z,57.63
2022-09-23T10:52:22.412Z,57.87
2022-09-23T10:58:00.130Z,57.41
2022-09-23T11:03:26.047Z,56.19
2022-09-23T11:08:32.061Z,56.58
2022-09-23T11:13:58.989Z,57.49
2022-09-23T11:19:32.429Z,55.09
2022-09-23T11:25:05.221Z,55.48
2022-09-23T11:30:08.270Z,55.22
2022-09-23T11:35:56.936Z,55.10
2022-09-23T11:41:09.991Z,55.13
2022-09-23T11:46:40.912Z,55.65
2022-09-23T11:52:06.051Z,56.12
2022-09-23T11:57:23.258Z,55.75
2022-09-23T12:03:05.842Z,56.68
2022-09-23T12:08:29.443Z,55.87
2022-09-23T12:14:03.556Z,55.14
2022-09-23T12:19:19.235Z,53.94
2022-09-23T12:24:52.143Z,53.23
2022-09-23T12:29:59.816Z,54.24
2022-09-23T12:35:02.846Z,54.21
2022-09-23T12:40:19.218Z,55.36
2022-09-23T12:45:32.769Z,55.24
2022-09-23T12:50:54.994Z,54.45
2022-09-23T12:55:59.642Z,53.18
2022-09-23T13:01:20.245Z,52.45
2022-09-23T13:06:40.238Z,51.93
2022-09-23T13:11:48.025Z,51.30
2022-09-23T13:16:51.859Z,51.44
2022-09-23T13:21:54.662Z,52.35
2022-09-23T13:27:15.781Z,52.28
2022-09-23T13:32:21.792Z,53.02
2022-09-23T13:37:38.886Z,54.03
2022-09-23T13:42:43.944Z,53.36
2022-09-23T13:47:49.207Z,52.67
2022-09-23T13:52:56.649Z,51.85
2022-09-23T13:58:06.122Z,51.27
2022-09-23T14:03:21.731Z,50.11
2022-09-23T14:08:25.544Z,51.33
2022-09-23T14:13:32.293Z,51.69
2022-09-23T14:18:40.533Z,52.82
2022-09-23T14:23:46.431Z,52.79
2022-09-23T14:28:50.512Z,51.80
2022-09-23T14:33:53.405Z,51.43
2022-09-23T14:39:12.486Z,51.29
2022-09-23T14:44:25.158Z,50.44
2022-09-23T14:49:28.176Z,51.08
2022-09-23T14:54:44.289Z,51.27
2022-09-23T14:59:53.732Z,51.62
2022-09-23T15:05:45.257Z,50.34
2022-09-23T15:10:48.873Z,50.13
2022-09-23T15:15:53.287Z,50.29
2022-09-23T15:21:18.581Z,50.57
2022-09-23T15:26:23.925Z,50.84
2022-09-23T15:31:27.337Z,51.71
2022-09-23T15:36:30.308Z,52.50
2022-09-23T15:41:33.751Z,52.45
2022-09-23T15:46:36.646Z,52.45
2022-09-23T15:51:39.631Z,53.05
2022-09-23T15:56:42.632Z,53.25
2022-09-23T16:01:46.010Z,53.80
2022-09-23T16:06:50.521Z,54.37
2022-09-23T16:11:53.347Z,54.34
2022-09-23T16:16:56.328Z,54.86
2022-09-23T16:21:59.284Z,55.18
2022-09-23T16:27:07.874Z,55.71
2022-09-23T16:32:10.752Z,55.91
2022-09-23T16:37:16.515Z,56.26
2022-09-23T16:42:19.970Z,56.24
2022-09-23T16:47:23.034Z,56.96
2022-09-23T16:52:25.956Z,57.78
2022-09-23T16:57:32.513Z,58.09
2022-09-23T17:02:54.065Z,58.75
2022-09-23T17:07:57.654Z,58.82
2022-09-23T17:13:00.676Z,59.32
2022-09-23T17:18:06.499Z,59.73
2022-09-23T17:23:09.515Z,60.45
2022-09-23T17:28:12.362Z,61.17
2022-09-23T17:33:20.052Z,61.55
2022-09-23T17:38:29.335Z,61.75
2022-09-23T17:49:01.837Z,61.91
2022-09-23T17:54:04.833Z,62.18
2022-09-23T17:59:12.726Z,62.40
2022-09-23T18:04:15.647Z,62.57
2022-09-23T18:09:19.550Z,63.17
2022-09-23T18:14:23.589Z,63.19
2022-09-23T18:19:26.913Z,63.50
2022-09-23T18:24:33.336Z,63.80
2022-09-23T18:29:38.036Z,64.01
2022-09-23T18:34:43.486Z,63.81
2022-09-23T18:39:46.454Z,64.28
2022-09-23T18:44:58.825Z,64.37
2022-09-23T18:50:20.447Z,64.44
2022-09-23T18:55:28.677Z,64.55
2022-09-23T19:00:31.669Z,64.09
2022-09-23T19:05:34.682Z,64.21
2022-09-23T19:10:37.549Z,64.29
2022-09-23T19:15:40.471Z,64.60
2022-09-23T19:20:54.270Z,64.87
2022-09-23T19:25:57.157Z,65.08
2022-09-23T19:31:16.815Z,65.23
2022-09-23T19:36:28.622Z,65.46
2022-09-23T19:41:33.612Z,65.56
2022-09-23T19:46:40.880Z,65.57
2022-09-23T19:51:46.499Z,65.52
2022-09-23T19:56:50.265Z,65.75
2022-09-23T20:01:53.337Z,65.55
2022-09-23T20:06:56.250Z,65.54
2022-09-23T20:12:01.281Z,65.75
2022-09-23T20:17:04.152Z,65.49
2022-09-23T20:22:27.493Z,65.49
2022-09-23T20:27:34.960Z,65.91
2022-09-23T20:32:40.744Z,65.73
2022-09-23T20:37:46.925Z,65.48
2022-09-23T20:42:49.847Z,65.56
2022-09-23T20:47:52.739Z,65.31
2022-09-23T20:52:56.460Z,65.40
2022-09-23T20:58:00.073Z,65.42
2022-09-23T21:03:02.957Z,65.51
2022-09-23T21:08:05.889Z,65.58
2022-09-23T21:13:08.789Z,66.25
2022-09-23T21:18:15.583Z,66.27
2022-09-23T21:23:21.953Z,65.77
2022-09-23T21:28:26.967Z,65.83
2022-09-23T21:33:31.041Z,65.64
2022-09-23T21:38:38.046Z,65.97
2022-09-23T21:43:41.658Z,65.55
2022-09-23T21:48:44.517Z,65.64
2022-09-23T21:53:47.580Z,66.02
2022-09-23T21:58:52.833Z,66.29
2022-09-23T22:04:09.571Z,66.36
2022-09-23T22:09:19.418Z,66.07
2022-09-23T22:14:26.046Z,66.02
2022-09-23T22:19:44.225Z,65.86
2022-09-23T22:24:50.096Z,66.15
2022-09-23T22:30:11.439Z,65.71
2022-09-23T22:35:17.913Z,65.46
2022-09-23T22:40:24.364Z,66.07
2022-09-23T22:45:27.774Z,66.33
2022-09-23T22:50:30.807Z,66.16
2022-09-23T22:55:34.418Z,66.09
2022-09-23T23:00:38.214Z,66.08
2022-09-23T23:05:41.057Z,65.97
2022-09-23T23:10:44.344Z,65.90
2022-09-23T23:15:49.001Z,65.97
2022-09-23T23:20:52.108Z,66.07
2022-09-23T23:25:55.309Z,66.23
2022-09-23T23:31:07.647Z,66.60
2022-09-23T23:36:13.548Z,66.75
2022-09-23T23:41:20.405Z,66.54
2022-09-23T23:46:26.586Z,66.85
2022-09-23T23:51:30.155Z,67.49
2022-09-23T23:56:33.288Z,67.37
